sensor_id;sensor_type;location;lat;lon;timestamp;pressure;altitude;pressure_sealevel;temperature;humidity
4326;BME280;58429;49.826;10.880;2023-01-27T00:00:04;98913;;;-0.44;84.98
4326;BME280;58429;49.826;10.880;2023-01-27T00:01:04;98908;;;-0.52;84.94
4326;BME280;58429;49.826;10.880;2023-01-27T00:02:04;98912;;;-0.47;84.97
4326;BME280;58429;49.826;10.880;2023-01-27T00:03:04;98912;;;-0.47;84.94
4326;BME280;58429;49.826;10.880;2023-01-27T00:04:04;98908;;;-0.49;84.96
4326;BME280;58429;49.826;10.880;2023-01-27T00:05:04;98909;;;-0.49;84.92
4326;BME280;58429;49.826;10.880;2023-01-27T00:06:04;98909;;;-0.46;84.91
4326;BME280;58429;49.826;10.880;2023-01-27T00:07:04;98902;;;-0.48;84.92
4326;BME280;58429;49.826;10.880;2023-01-27T00:08:04;98901;;;-0.48;84.92
4326;BME280;58429;49.826;10.880;2023-01-27T00:09:04;98913;;;-0.48;84.95
4326;BME280;58429;49.826;10.880;2023-01-27T00:10:04;98909;;;-0.49;84.96
4326;BME280;58429;49.826;10.880;2023-01-27T00:11:04;98912;;;-0.48;84.99
4326;BME280;58429;49.826;10.880;2023-01-27T00:12:04;98904;;;-0.46;84.99
4326;BME280;58429;49.826;10.880;2023-01-27T00:13:04;98906;;;-0.45;84.99
4326;BME280;58429;49.826;10.880;2023-01-27T00:14:04;98903;;;-0.46;84.95
4326;BME280;58429;49.826;10.880;2023-01-27T00:15:04;98908;;;-0.47;84.95
4326;BME280;58429;49.826;10.880;2023-01-27T00:16:04;98901;;;-0.47;84.96
4326;BME280;58429;49.826;10.880;2023-01-27T00:17:04;98905;;;-0.44;84.97
4326;BME280;58429;49.826;10.880;2023-01-27T00:18:04;98912;;;-0.48;84.9
4326;BME280;58429;49.826;10.880;2023-01-27T00:19:04;98903;;;-0.44;84.95
4326;BME280;58429;49.826;10.880;2023-01-27T00:20:04;98905;;;-0.48;84.95
4326;BME280;58429;49.826;10.880;2023-01-27T00:21:04;98895;;;-0.49;84.93
4326;BME280;58429;49.826;10.880;2023-01-27T00:22:04;98896;;;-0.47;84.93
4326;BME280;58429;49.826;10.880;2023-01-27T00:23:04;98906;;;-0.46;84.93
4326;BME280;58429;49.826;10.880;2023-01-27T00:24:04;98898;;;-0.48;84.91
4326;BME280;58429;49.826;10.880;2023-01-27T00:25:04;98904;;;-0.47;84.81
4326;BME280;58429;49.826;10.880;2023-01-27T00:26:04;98903;;;-0.5;84.78
4326;BME280;58429;49.826;10.880;2023-01-27T00:27:04;98900;;;-0.48;84.75
4326;BME280;58429;49.826;10.880;2023-01-27T00:28:04;98902;;;-0.48;84.71
4326;BME280;58429;49.826;10.880;2023-01-27T00:29:04;98899;;;-0.44;84.77
4326;BME280;58429;49.826;10.880;2023-01-27T00:30:04;98895;;;-0.48;84.74
4326;BME280;58429;49.826;10.880;2023-01-27T00:31:04;98896;;;-0.45;84.79
4326;BME280;58429;49.826;10.880;2023-01-27T00:32:04;98901;;;-0.42;84.72
4326;BME280;58429;49.826;10.880;2023-01-27T00:33:04;98891;;;-0.42;84.73
4326;BME280;58429;49.826;10.880;2023-01-27T00:34:04;98898;;;-0.5;84.67
4326;BME280;58429;49.826;10.880;2023-01-27T00:35:04;98895;;;-0.46;84.7
4326;BME280;58429;49.826;10.880;2023-01-27T00:36:04;98895;;;-0.49;84.7
4326;BME280;58429;49.826;10.880;2023-01-27T00:37:04;98902;;;-0.43;84.75
4326;BME280;58429;49.826;10.880;2023-01-27T00:38:04;98894;;;-0.49;84.72
4326;BME280;58429;49.826;10.880;2023-01-27T00:39:04;98893;;;-0.48;84.72
4326;BME280;58429;49.826;10.880;2023-01-27T00:40:04;98895;;;-0.52;84.68
4326;BME280;58429;49.826;10.880;2023-01-27T00:41:04;98897;;;-0.46;84.7
4326;BME280;58429;49.826;10.880;2023-01-27T00:42:04;98899;;;-0.47;84.71
4326;BME280;58429;49.826;10.880;2023-01-27T00:43:04;98898;;;-0.51;84.71
4326;BME280;58429;49.826;10.880;2023-01-27T00:44:04;98899;;;-0.51;84.73
4326;BME280;58429;49.826;10.880;2023-01-27T00:45:04;98902;;;-0.46;84.73
4326;BME280;58429;49.826;10.880;2023-01-27T00:46:04;98893;;;-0.47;84.75
4326;BME280;58429;49.826;10.880;2023-01-27T00:47:04;98893;;;-0.45;84.77
4326;BME280;58429;49.826;10.880;2023-01-27T00:48:04;98895;;;-0.46;84.75
4326;BME280;58429;49.826;10.880;2023-01-27T00:49:04;98895;;;-0.45;84.81
4326;BME280;58429;49.826;10.880;2023-01-27T00:50:04;98897;;;-0.44;84.81
4326;BME280;58429;49.826;10.880;2023-01-27T00:51:04;98899;;;-0.47;84.79
4326;BME280;58429;49.826;10.880;2023-01-27T00:52:04;98897;;;-0.45;84.82
4326;BME280;58429;49.826;10.880;2023-01-27T00:53:04;98896;;;-0.45;84.81
4326;BME280;58429;49.826;10.880;2023-01-27T00:54:04;98893;;;-0.45;84.8
4326;BME280;58429;49.826;10.880;2023-01-27T00:55:04;98898;;;-0.44;84.78
4326;BME280;58429;49.826;10.880;2023-01-27T00:56:04;98901;;;-0.44;84.8
4326;BME280;58429;49.826;10.880;2023-01-27T00:57:04;98903;;;-0.44;84.82
4326;BME280;58429;49.826;10.880;2023-01-27T00:58:04;98897;;;-0.47;84.79
4326;BME280;58429;49.826;10.880;2023-01-27T00:59:04;98892;;;-0.44;84.75
4326;BME280;58429;49.826;10.880;2023-01-27T01:00:04;98895;;;-0.45;84.74
4326;BME280;58429;49.826;10.880;2023-01-27T01:01:06;98894;;;-0.43;84.77
4326;BME280;58429;49.826;10.880;2023-01-27T01:02:04;98899;;;-0.42;84.77
4326;BME280;58429;49.826;10.880;2023-01-27T01:03:04;98893;;;-0.45;84.73
4326;BME280;58429;49.826;10.880;2023-01-27T01:04:04;98902;;;-0.41;84.73
4326;BME280;58429;49.826;10.880;2023-01-27T01:05:04;98907;;;-0.43;84.74
4326;BME280;58429;49.826;10.880;2023-01-27T01:06:05;98900;;;-0.43;84.75
4326;BME280;58429;49.826;10.880;2023-01-27T01:07:04;98901;;;-0.44;84.74
4326;BME280;58429;49.826;10.880;2023-01-27T01:08:04;98898;;;-0.42;84.75
4326;BME280;58429;49.826;10.880;2023-01-27T01:09:04;98900;;;-0.41;84.74
4326;BME280;58429;49.826;10.880;2023-01-27T01:10:04;98902;;;-0.42;84.75
4326;BME280;58429;49.826;10.880;2023-01-27T01:11:04;98898;;;-0.41;84.78
4326;BME280;58429;49.826;10.880;2023-01-27T01:12:04;98902;;;-0.43;84.77
4326;BME280;58429;49.826;10.880;2023-01-27T01:13:04;98906;;;-0.41;84.77
4326;BME280;58429;49.826;10.880;2023-01-27T01:14:04;98901;;;-0.41;84.76
4326;BME280;58429;49.826;10.880;2023-01-27T01:15:04;98901;;;-0.4;84.74
4326;BME280;58429;49.826;10.880;2023-01-27T01:16:04;98904;;;-0.37;84.76
4326;BME280;58429;49.826;10.880;2023-01-27T01:17:04;98905;;;-0.39;84.72
4326;BME280;58429;49.826;10.880;2023-01-27T01:18:04;98909;;;-0.4;84.7
4326;BME280;58429;49.826;10.880;2023-01-27T01:19:04;98914;;;-0.41;84.72
4326;BME280;58429;49.826;10.880;2023-01-27T01:20:04;98910;;;-0.4;84.74
4326;BME280;58429;49.826;10.880;2023-01-27T01:21:04;98912;;;-0.4;84.78
4326;BME280;58429;49.826;10.880;2023-01-27T01:22:04;98911;;;-0.42;84.76
4326;BME280;58429;49.826;10.880;2023-01-27T01:23:04;98911;;;-0.4;84.76
4326;BME280;58429;49.826;10.880;2023-01-27T01:24:04;98903;;;-0.42;84.75
4326;BME280;58429;49.826;10.880;2023-01-27T01:25:04;98910;;;-0.41;84.75
4326;BME280;58429;49.826;10.880;2023-01-27T01:26:04;98913;;;-0.41;84.73
4326;BME280;58429;49.826;10.880;2023-01-27T01:27:04;98908;;;-0.42;84.74
4326;BME280;58429;49.826;10.880;2023-01-27T01:28:05;98914;;;-0.44;84.69
4326;BME280;58429;49.826;10.880;2023-01-27T01:29:04;98909;;;-0.4;84.7
4326;BME280;58429;49.826;10.880;2023-01-27T01:30:04;98903;;;-0.4;84.63
4326;BME280;58429;49.826;10.880;2023-01-27T01:31:04;98909;;;-0.39;84.63
4326;BME280;58429;49.826;10.880;2023-01-27T01:32:04;98908;;;-0.38;84.61
4326;BME280;58429;49.826;10.880;2023-01-27T01:33:04;98909;;;-0.4;84.57
4326;BME280;58429;49.826;10.880;2023-01-27T01:34:04;98909;;;-0.38;84.56
4326;BME280;58429;49.826;10.880;2023-01-27T01:35:04;98909;;;-0.36;84.52
4326;BME280;58429;49.826;10.880;2023-01-27T01:36:05;98909;;;-0.34;84.51
4326;BME280;58429;49.826;10.880;2023-01-27T01:37:04;98910;;;-0.34;84.5
4326;BME280;58429;49.826;10.880;2023-01-27T01:38:04;98914;;;-0.34;84.48
4326;BME280;58429;49.826;10.880;2023-01-27T01:39:04;98909;;;-0.33;84.44
4326;BME280;58429;49.826;10.880;2023-01-27T01:40:04;98910;;;-0.32;84.4
4326;BME280;58429;49.826;10.880;2023-01-27T01:41:04;98908;;;-0.32;84.4
4326;BME280;58429;49.826;10.880;2023-01-27T01:42:04;98913;;;-0.32;84.37
4326;BME280;58429;49.826;10.880;2023-01-27T01:43:05;98909;;;-0.35;84.28
4326;BME280;58429;49.826;10.880;2023-01-27T01:44:25;98908;;;-0.39;84.18
4326;BME280;58429;49.826;10.880;2023-01-27T01:46:04;98902;;;-0.36;83.94
4326;BME280;58429;49.826;10.880;2023-01-27T01:47:04;98904;;;-0.36;83.88
4326;BME280;58429;49.826;10.880;2023-01-27T01:48:04;98901;;;-0.37;83.88
4326;BME280;58429;49.826;10.880;2023-01-27T01:49:04;98910;;;-0.37;83.85
4326;BME280;58429;49.826;10.880;2023-01-27T01:50:04;98907;;;-0.38;83.77
4326;BME280;58429;49.826;10.880;2023-01-27T01:51:06;98906;;;-0.38;83.75
4326;BME280;58429;49.826;10.880;2023-01-27T01:52:05;98912;;;-0.39;83.71
4326;BME280;58429;49.826;10.880;2023-01-27T01:53:04;98908;;;-0.39;83.68
4326;BME280;58429;49.826;10.880;2023-01-27T01:54:05;98904;;;-0.42;83.51
4326;BME280;58429;49.826;10.880;2023-01-27T01:55:04;98907;;;-0.39;83.55
4326;BME280;58429;49.826;10.880;2023-01-27T01:56:05;98905;;;-0.4;83.61
4326;BME280;58429;49.826;10.880;2023-01-27T01:57:05;98909;;;-0.4;83.65
4326;BME280;58429;49.826;10.880;2023-01-27T01:58:04;98910;;;-0.39;83.67
4326;BME280;58429;49.826;10.880;2023-01-27T01:59:05;98909;;;-0.41;83.72
4326;BME280;58429;49.826;10.880;2023-01-27T02:00:04;98907;;;-0.4;83.8
4326;BME280;58429;49.826;10.880;2023-01-27T02:01:04;98914;;;-0.4;83.79
4326;BME280;58429;49.826;10.880;2023-01-27T02:02:05;98908;;;-0.43;83.78
4326;BME280;58429;49.826;10.880;2023-01-27T02:03:04;98914;;;-0.41;83.81
4326;BME280;58429;49.826;10.880;2023-01-27T02:04:05;98911;;;-0.41;83.52
4326;BME280;58429;49.826;10.880;2023-01-27T02:05:05;98913;;;-0.42;83.4
4326;BME280;58429;49.826;10.880;2023-01-27T02:06:04;98907;;;-0.44;83.52
4326;BME280;58429;49.826;10.880;2023-01-27T02:07:06;98911;;;-0.42;83.58
4326;BME280;58429;49.826;10.880;2023-01-27T02:08:06;98909;;;-0.37;83.6
4326;BME280;58429;49.826;10.880;2023-01-27T02:09:04;98906;;;-0.38;83.64
4326;BME280;58429;49.826;10.880;2023-01-27T02:10:04;98909;;;-0.43;83.64
4326;BME280;58429;49.826;10.880;2023-01-27T02:11:04;98907;;;-0.37;83.71
4326;BME280;58429;49.826;10.880;2023-01-27T02:12:04;98905;;;-0.36;83.74
4326;BME280;58429;49.826;10.880;2023-01-27T02:13:04;98909;;;-0.38;83.73
4326;BME280;58429;49.826;10.880;2023-01-27T02:14:04;98915;;;-0.37;83.71
4326;BME280;58429;49.826;10.880;2023-01-27T02:15:04;98910;;;-0.36;83.71
4326;BME280;58429;49.826;10.880;2023-01-27T02:16:04;98905;;;-0.38;83.67
4326;BME280;58429;49.826;10.880;2023-01-27T02:17:04;98908;;;-0.39;83.58
4326;BME280;58429;49.826;10.880;2023-01-27T02:18:04;98912;;;-0.36;83.52
4326;BME280;58429;49.826;10.880;2023-01-27T02:19:04;98908;;;-0.38;83.5
4326;BME280;58429;49.826;10.880;2023-01-27T02:20:05;98910;;;-0.38;83.43
4326;BME280;58429;49.826;10.880;2023-01-27T02:21:04;98903;;;-0.39;83.46
4326;BME280;58429;49.826;10.880;2023-01-27T02:22:04;98907;;;-0.41;83.5
4326;BME280;58429;49.826;10.880;2023-01-27T02:23:07;98905;;;-0.38;83.48
4326;BME280;58429;49.826;10.880;2023-01-27T02:24:04;98899;;;-0.39;83.44
4326;BME280;58429;49.826;10.880;2023-01-27T02:25:05;98905;;;-0.35;83.39
4326;BME280;58429;49.826;10.880;2023-01-27T02:26:05;98902;;;-0.38;83.27
4326;BME280;58429;49.826;10.880;2023-01-27T02:27:04;98901;;;-0.35;83.28
4326;BME280;58429;49.826;10.880;2023-01-27T02:28:05;98905;;;-0.38;83.25
4326;BME280;58429;49.826;10.880;2023-01-27T02:29:05;98900;;;-0.38;83.2
4326;BME280;58429;49.826;10.880;2023-01-27T02:30:05;98902;;;-0.39;83.05
4326;BME280;58429;49.826;10.880;2023-01-27T02:31:04;98901;;;-0.4;83.06
4326;BME280;58429;49.826;10.880;2023-01-27T02:32:04;98910;;;-0.4;83.13
4326;BME280;58429;49.826;10.880;2023-01-27T02:33:07;98908;;;-0.41;83.14
4326;BME280;58429;49.826;10.880;2023-01-27T02:34:05;98903;;;-0.42;83.09
4326;BME280;58429;49.826;10.880;2023-01-27T02:35:04;98899;;;-0.43;83.08
4326;BME280;58429;49.826;10.880;2023-01-27T02:36:05;98904;;;-0.44;83.05
4326;BME280;58429;49.826;10.880;2023-01-27T02:37:04;98905;;;-0.44;83.09
4326;BME280;58429;49.826;10.880;2023-01-27T02:38:04;98906;;;-0.47;83.07
4326;BME280;58429;49.826;10.880;2023-01-27T02:39:04;98903;;;-0.44;83.1
4326;BME280;58429;49.826;10.880;2023-01-27T02:40:04;98905;;;-0.48;83.06
4326;BME280;58429;49.826;10.880;2023-01-27T02:41:06;98903;;;-0.46;83.05
4326;BME280;58429;49.826;10.880;2023-01-27T02:42:04;98900;;;-0.52;83.05
4326;BME280;58429;49.826;10.880;2023-01-27T02:43:04;98912;;;-0.44;83.04
4326;BME280;58429;49.826;10.880;2023-01-27T02:44:04;98902;;;-0.42;83
4326;BME280;58429;49.826;10.880;2023-01-27T02:45:04;98906;;;-0.47;83.06
4326;BME280;58429;49.826;10.880;2023-01-27T02:46:04;98904;;;-0.48;82.98
4326;BME280;58429;49.826;10.880;2023-01-27T02:47:04;98904;;;-0.51;83.01
4326;BME280;58429;49.826;10.880;2023-01-27T02:48:04;98908;;;-0.51;82.85
4326;BME280;58429;49.826;10.880;2023-01-27T02:49:04;98901;;;-0.54;82.76
4326;BME280;58429;49.826;10.880;2023-01-27T02:50:04;98906;;;-0.54;82.76
4326;BME280;58429;49.826;10.880;2023-01-27T02:51:04;98906;;;-0.56;82.84
4326;BME280;58429;49.826;10.880;2023-01-27T02:52:04;98899;;;-0.55;82.89
4326;BME280;58429;49.826;10.880;2023-01-27T02:53:04;98906;;;-0.57;82.83
4326;BME280;58429;49.826;10.880;2023-01-27T02:54:04;98911;;;-0.54;82.83
4326;BME280;58429;49.826;10.880;2023-01-27T02:55:04;98904;;;-0.57;82.88
4326;BME280;58429;49.826;10.880;2023-01-27T02:56:04;98896;;;-0.57;82.91
4326;BME280;58429;49.826;10.880;2023-01-27T02:57:04;98903;;;-0.58;82.95
4326;BME280;58429;49.826;10.880;2023-01-27T02:58:04;98908;;;-0.58;82.55
4326;BME280;58429;49.826;10.880;2023-01-27T02:59:04;98902;;;-0.54;82.66
4326;BME280;58429;49.826;10.880;2023-01-27T03:00:04;98912;;;-0.56;82.72
4326;BME280;58429;49.826;10.880;2023-01-27T03:01:04;98900;;;-0.54;82.74
4326;BME280;58429;49.826;10.880;2023-01-27T03:02:04;98915;;;-0.55;82.78
4326;BME280;58429;49.826;10.880;2023-01-27T03:03:04;98904;;;-0.55;82.81
4326;BME280;58429;49.826;10.880;2023-01-27T03:04:04;98904;;;-0.52;82.9
4326;BME280;58429;49.826;10.880;2023-01-27T03:05:04;98906;;;-0.54;82.78
4326;BME280;58429;49.826;10.880;2023-01-27T03:06:04;98910;;;-0.54;82.81
4326;BME280;58429;49.826;10.880;2023-01-27T03:07:04;98906;;;-0.49;82.85
4326;BME280;58429;49.826;10.880;2023-01-27T03:08:04;98907;;;-0.54;82.59
4326;BME280;58429;49.826;10.880;2023-01-27T03:09:04;98913;;;-0.51;82.55
4326;BME280;58429;49.826;10.880;2023-01-27T03:10:04;98911;;;-0.55;82.32
4326;BME280;58429;49.826;10.880;2023-01-27T03:11:04;98909;;;-0.59;82.23
4326;BME280;58429;49.826;10.880;2023-01-27T03:12:04;98907;;;-0.6;82.38
4326;BME280;58429;49.826;10.880;2023-01-27T03:13:04;98909;;;-0.58;82.51
4326;BME280;58429;49.826;10.880;2023-01-27T03:14:05;98907;;;-0.6;82.52
4326;BME280;58429;49.826;10.880;2023-01-27T03:15:04;98913;;;-0.58;82.58
4326;BME280;58429;49.826;10.880;2023-01-27T03:16:05;98911;;;-0.58;82.62
4326;BME280;58429;49.826;10.880;2023-01-27T03:17:04;98910;;;-0.55;82.58
4326;BME280;58429;49.826;10.880;2023-01-27T03:18:05;98911;;;-0.56;82.56
4326;BME280;58429;49.826;10.880;2023-01-27T03:19:04;98910;;;-0.55;82.66
4326;BME280;58429;49.826;10.880;2023-01-27T03:20:04;98911;;;-0.52;82.68
4326;BME280;58429;49.826;10.880;2023-01-27T03:21:05;98910;;;-0.54;82.58
4326;BME280;58429;49.826;10.880;2023-01-27T03:22:04;98913;;;-0.51;82.51
4326;BME280;58429;49.826;10.880;2023-01-27T03:23:04;98913;;;-0.48;82.55
4326;BME280;58429;49.826;10.880;2023-01-27T03:24:04;98915;;;-0.53;82.44
4326;BME280;58429;49.826;10.880;2023-01-27T03:25:04;98921;;;-0.6;82.25
4326;BME280;58429;49.826;10.880;2023-01-27T03:26:05;98918;;;-0.6;82.34
4326;BME280;58429;49.826;10.880;2023-01-27T03:27:04;98916;;;-0.6;82.33
4326;BME280;58429;49.826;10.880;2023-01-27T03:28:04;98921;;;-0.62;82.27
4326;BME280;58429;49.826;10.880;2023-01-27T03:29:04;98922;;;-0.62;82.3
4326;BME280;58429;49.826;10.880;2023-01-27T03:30:05;98921;;;-0.63;82.33
4326;BME280;58429;49.826;10.880;2023-01-27T03:31:05;98924;;;-0.65;82.35
4326;BME280;58429;49.826;10.880;2023-01-27T03:32:04;98920;;;-0.64;82.35
4326;BME280;58429;49.826;10.880;2023-01-27T03:33:04;98928;;;-0.65;82.26
4326;BME280;58429;49.826;10.880;2023-01-27T03:34:04;98932;;;-0.66;82.17
4326;BME280;58429;49.826;10.880;2023-01-27T03:35:04;98932;;;-0.67;82.16
4326;BME280;58429;49.826;10.880;2023-01-27T03:36:04;98934;;;-0.66;82.3
4326;BME280;58429;49.826;10.880;2023-01-27T03:37:04;98931;;;-0.65;82.35
4326;BME280;58429;49.826;10.880;2023-01-27T03:38:05;98934;;;-0.67;82.32
4326;BME280;58429;49.826;10.880;2023-01-27T03:39:04;98928;;;-0.65;82.35
4326;BME280;58429;49.826;10.880;2023-01-27T03:40:04;98932;;;-0.66;82.35
4326;BME280;58429;49.826;10.880;2023-01-27T03:41:04;98927;;;-0.65;82.15
4326;BME280;58429;49.826;10.880;2023-01-27T03:42:04;98931;;;-0.66;82.19
4326;BME280;58429;49.826;10.880;2023-01-27T03:43:04;98920;;;-0.68;82.1
4326;BME280;58429;49.826;10.880;2023-01-27T03:44:04;98920;;;-0.69;82.16
4326;BME280;58429;49.826;10.880;2023-01-27T03:45:04;98916;;;-0.72;82.23
4326;BME280;58429;49.826;10.880;2023-01-27T03:46:04;98917;;;-0.71;82.04
4326;BME280;58429;49.826;10.880;2023-01-27T03:47:04;98919;;;-0.73;81.95
4326;BME280;58429;49.826;10.880;2023-01-27T03:48:04;98913;;;-0.74;81.96
4326;BME280;58429;49.826;10.880;2023-01-27T03:49:04;98920;;;-0.73;82.07
4326;BME280;58429;49.826;10.880;2023-01-27T03:50:04;98912;;;-0.73;82.14
4326;BME280;58429;49.826;10.880;2023-01-27T03:51:05;98923;;;-0.74;82.02
4326;BME280;58429;49.826;10.880;2023-01-27T03:52:04;98912;;;-0.73;82.1
4326;BME280;58429;49.826;10.880;2023-01-27T03:53:04;98919;;;-0.74;82.11
4326;BME280;58429;49.826;10.880;2023-01-27T03:54:04;98931;;;-0.72;82.05
4326;BME280;58429;49.826;10.880;2023-01-27T03:55:04;98929;;;-0.71;82.07
4326;BME280;58429;49.826;10.880;2023-01-27T03:56:04;98925;;;-0.73;82.09
4326;BME280;58429;49.826;10.880;2023-01-27T03:57:04;98926;;;-0.76;82.06
4326;BME280;58429;49.826;10.880;2023-01-27T03:58:07;98928;;;-0.77;82
4326;BME280;58429;49.826;10.880;2023-01-27T03:59:04;98928;;;-0.74;82.15
4326;BME280;58429;49.826;10.880;2023-01-27T04:00:04;98922;;;-0.76;82.23
4326;BME280;58429;49.826;10.880;2023-01-27T04:01:05;98925;;;-0.77;82.23
4326;BME280;58429;49.826;10.880;2023-01-27T04:02:04;98927;;;-0.77;82.26
4326;BME280;58429;49.826;10.880;2023-01-27T04:03:04;98919;;;-0.76;82.28
4326;BME280;58429;49.826;10.880;2023-01-27T04:04:04;98917;;;-0.73;82.36
4326;BME280;58429;49.826;10.880;2023-01-27T04:05:04;98924;;;-0.73;82.27
4326;BME280;58429;49.826;10.880;2023-01-27T04:06:05;98930;;;-0.72;82.15
4326;BME280;58429;49.826;10.880;2023-01-27T04:07:04;98928;;;-0.74;82.1
4326;BME280;58429;49.826;10.880;2023-01-27T04:08:04;98931;;;-0.73;82.13
4326;BME280;58429;49.826;10.880;2023-01-27T04:09:04;98921;;;-0.73;82.1
4326;BME280;58429;49.826;10.880;2023-01-27T04:10:04;98926;;;-0.72;82.24
4326;BME280;58429;49.826;10.880;2023-01-27T04:11:04;98926;;;-0.72;82.22
4326;BME280;58429;49.826;10.880;2023-01-27T04:12:05;98922;;;-0.71;82.06
4326;BME280;58429;49.826;10.880;2023-01-27T04:13:04;98922;;;-0.69;82.02
4326;BME280;58429;49.826;10.880;2023-01-27T04:14:04;98919;;;-0.68;82.01
4326;BME280;58429;49.826;10.880;2023-01-27T04:15:04;98925;;;-0.67;82.01
4326;BME280;58429;49.826;10.880;2023-01-27T04:16:04;98921;;;-0.67;81.92
4326;BME280;58429;49.826;10.880;2023-01-27T04:17:05;98923;;;-0.68;81.85
4326;BME280;58429;49.826;10.880;2023-01-27T04:18:04;98923;;;-0.69;81.94
4326;BME280;58429;49.826;10.880;2023-01-27T04:19:05;98922;;;-0.71;82.01
4326;BME280;58429;49.826;10.880;2023-01-27T04:20:04;98925;;;-0.69;82.07
4326;BME280;58429;49.826;10.880;2023-01-27T04:21:04;98923;;;-0.65;82.05
4326;BME280;58429;49.826;10.880;2023-01-27T04:22:04;98912;;;-0.65;81.94
4326;BME280;58429;49.826;10.880;2023-01-27T04:23:04;98923;;;-0.66;81.97
4326;BME280;58429;49.826;10.880;2023-01-27T04:24:04;98925;;;-0.65;81.88
4326;BME280;58429;49.826;10.880;2023-01-27T04:25:04;98920;;;-0.66;81.86
4326;BME280;58429;49.826;10.880;2023-01-27T04:26:04;98912;;;-0.66;81.83
4326;BME280;58429;49.826;10.880;2023-01-27T04:27:05;98923;;;-0.68;81.8
4326;BME280;58429;49.826;10.880;2023-01-27T04:28:04;98928;;;-0.67;81.79
4326;BME280;58429;49.826;10.880;2023-01-27T04:29:04;98925;;;-0.65;81.82
4326;BME280;58429;49.826;10.880;2023-01-27T04:30:05;98918;;;-0.64;81.82
4326;BME280;58429;49.826;10.880;2023-01-27T04:31:04;98920;;;-0.65;81.79
4326;BME280;58429;49.826;10.880;2023-01-27T04:32:05;98924;;;-0.65;81.73
4326;BME280;58429;49.826;10.880;2023-01-27T04:33:04;98922;;;-0.65;81.58
4326;BME280;58429;49.826;10.880;2023-01-27T04:34:04;98923;;;-0.68;81.4
4326;BME280;58429;49.826;10.880;2023-01-27T04:35:04;98922;;;-0.66;81.55
4326;BME280;58429;49.826;10.880;2023-01-27T04:36:04;98922;;;-0.67;81.61
4326;BME280;58429;49.826;10.880;2023-01-27T04:37:05;98926;;;-0.65;81.7
4326;BME280;58429;49.826;10.880;2023-01-27T04:38:04;98923;;;-0.66;81.7
4326;BME280;58429;49.826;10.880;2023-01-27T04:39:04;98918;;;-0.65;81.76
4326;BME280;58429;49.826;10.880;2023-01-27T04:40:05;98915;;;-0.64;81.8
4326;BME280;58429;49.826;10.880;2023-01-27T04:41:04;98924;;;-0.64;81.74
4326;BME280;58429;49.826;10.880;2023-01-27T04:42:04;98923;;;-0.64;81.61
4326;BME280;58429;49.826;10.880;2023-01-27T04:43:04;98921;;;-0.65;81.57
4326;BME280;58429;49.826;10.880;2023-01-27T04:44:04;98921;;;-0.66;81.55
4326;BME280;58429;49.826;10.880;2023-01-27T04:45:05;98916;;;-0.66;81.54
4326;BME280;58429;49.826;10.880;2023-01-27T04:46:04;98927;;;-0.65;81.6
4326;BME280;58429;49.826;10.880;2023-01-27T04:47:04;98933;;;-0.65;81.64
4326;BME280;58429;49.826;10.880;2023-01-27T04:48:05;98928;;;-0.65;81.45
4326;BME280;58429;49.826;10.880;2023-01-27T04:49:05;98929;;;-0.65;81.45
4326;BME280;58429;49.826;10.880;2023-01-27T04:50:05;98931;;;-0.64;81.4
4326;BME280;58429;49.826;10.880;2023-01-27T04:51:04;98941;;;-0.64;81.37
4326;BME280;58429;49.826;10.880;2023-01-27T04:52:04;98931;;;-0.62;81.48
4326;BME280;58429;49.826;10.880;2023-01-27T04:53:04;98945;;;-0.62;81.51
4326;BME280;58429;49.826;10.880;2023-01-27T04:54:04;98940;;;-0.63;81.49
4326;BME280;58429;49.826;10.880;2023-01-27T04:55:04;98941;;;-0.62;81.4
4326;BME280;58429;49.826;10.880;2023-01-27T04:56:05;98944;;;-0.63;81.34
4326;BME280;58429;49.826;10.880;2023-01-27T04:57:04;98942;;;-0.64;81.34
4326;BME280;58429;49.826;10.880;2023-01-27T04:58:04;98948;;;-0.62;81.3
4326;BME280;58429;49.826;10.880;2023-01-27T04:59:05;98950;;;-0.64;81.25
4326;BME280;58429;49.826;10.880;2023-01-27T05:00:05;98937;;;-0.63;81.23
4326;BME280;58429;49.826;10.880;2023-01-27T05:01:04;98949;;;-0.65;81.37
4326;BME280;58429;49.826;10.880;2023-01-27T05:02:04;98942;;;-0.63;81.22
4326;BME280;58429;49.826;10.880;2023-01-27T05:03:04;98941;;;-0.65;81.22
4326;BME280;58429;49.826;10.880;2023-01-27T05:04:04;98943;;;-0.62;81.22
4326;BME280;58429;49.826;10.880;2023-01-27T05:05:04;98937;;;-0.61;81.18
4326;BME280;58429;49.826;10.880;2023-01-27T05:06:05;98944;;;-0.64;81.21
4326;BME280;58429;49.826;10.880;2023-01-27T05:07:04;98940;;;-0.64;81.26
4326;BME280;58429;49.826;10.880;2023-01-27T05:08:05;98941;;;-0.59;81.3
4326;BME280;58429;49.826;10.880;2023-01-27T05:09:04;98943;;;-0.64;81.17
4326;BME280;58429;49.826;10.880;2023-01-27T05:10:05;98949;;;-0.65;80.94
4326;BME280;58429;49.826;10.880;2023-01-27T05:11:04;98944;;;-0.65;80.98
4326;BME280;58429;49.826;10.880;2023-01-27T05:12:04;98946;;;-0.65;81.01
4326;BME280;58429;49.826;10.880;2023-01-27T05:13:04;98951;;;-0.64;81.01
4326;BME280;58429;49.826;10.880;2023-01-27T05:14:04;98948;;;-0.64;80.82
4326;BME280;58429;49.826;10.880;2023-01-27T05:15:05;98942;;;-0.64;80.92
4326;BME280;58429;49.826;10.880;2023-01-27T05:16:07;98938;;;-0.68;80.88
4326;BME280;58429;49.826;10.880;2023-01-27T05:17:05;98941;;;-0.65;80.89
4326;BME280;58429;49.826;10.880;2023-01-27T05:18:04;98941;;;-0.68;80.82
4326;BME280;58429;49.826;10.880;2023-01-27T05:19:04;98944;;;-0.65;80.88
4326;BME280;58429;49.826;10.880;2023-01-27T05:20:05;98944;;;-0.63;80.95
4326;BME280;58429;49.826;10.880;2023-01-27T05:21:05;98944;;;-0.64;80.87
4326;BME280;58429;49.826;10.880;2023-01-27T05:22:05;98943;;;-0.66;80.85
4326;BME280;58429;49.826;10.880;2023-01-27T05:23:04;98945;;;-0.65;80.68
4326;BME280;58429;49.826;10.880;2023-01-27T05:24:04;98945;;;-0.65;80.78
4326;BME280;58429;49.826;10.880;2023-01-27T05:25:04;98945;;;-0.63;80.86
4326;BME280;58429;49.826;10.880;2023-01-27T05:26:05;98946;;;-0.65;80.86
4326;BME280;58429;49.826;10.880;2023-01-27T05:27:04;98948;;;-0.65;80.76
4326;BME280;58429;49.826;10.880;2023-01-27T05:28:04;98952;;;-0.67;80.8
4326;BME280;58429;49.826;10.880;2023-01-27T05:29:04;98951;;;-0.65;80.83
4326;BME280;58429;49.826;10.880;2023-01-27T05:30:05;98944;;;-0.67;80.81
4326;BME280;58429;49.826;10.880;2023-01-27T05:31:05;98950;;;-0.65;80.73
4326;BME280;58429;49.826;10.880;2023-01-27T05:32:04;98953;;;-0.66;80.77